Time;durP1;ratioP1;P1;durP2;ratioP2;P2;SDS_P1;SDS_P2;PMS_P1;PMS_P2;Temp;Humidity;BMP_temperature;BMP_pressure;BME280_temperature;BME280_humidity;BME280_pressure;Samples;Min_cycle;Max_cycle;Signal;HPM_P1;HPM_P2
2023/03/14 00:00:35;;;;;;;0.80;0.60;;;;;;;10.98;92.30;97058.84;5134698;27;43141;-78
2023/03/14 00:03:03;;;;;;;1.13;0.80;;;;;;;10.76;93.66;97025.53;5134422;27;42179;-87
2023/03/14 00:05:31;;;;;;;1.40;0.80;;;;;;;11.01;93.32;97065.63;5127436;27;38874;-78
2023/03/14 00:07:59;;;;;;;1.33;0.70;;;;;;;11.03;93.09;97063.69;5143291;27;42279;-85
2023/03/14 00:10:26;;;;;;;0.80;0.60;;;;;;;11.07;92.76;97065.09;5134778;27;41677;-86
2023/03/14 00:12:56;;;;;;;0.50;0.50;;;;;;;11.10;93.05;97060.34;5117267;27;41250;-85
2023/03/14 00:15:23;;;;;;;1.63;0.50;;;;;;;11.12;93.54;97063.69;5134472;27;40057;-87
2023/03/14 00:17:51;;;;;;;1.43;0.70;;;;;;;11.16;92.89;97051.81;5133682;27;43872;-82
2023/03/14 00:20:19;;;;;;;1.13;0.60;;;;;;;11.18;93.04;97051.66;5116627;27;43335;-85
2023/03/14 00:22:47;;;;;;;0.70;0.70;;;;;;;11.11;93.14;97024.94;5133756;27;42950;-86
2023/03/14 00:25:15;;;;;;;1.80;0.60;;;;;;;10.99;92.88;96996.94;5134308;27;39927;-79
2023/03/14 00:27:43;;;;;;;0.80;0.60;;;;;;;11.31;92.63;97038.09;5134048;27;43536;-79
2023/03/14 00:30:13;;;;;;;0.40;0.40;;;;;;;11.12;92.24;97009.88;5134240;27;43471;-80
2023/03/14 00:32:42;;;;;;;0.70;0.40;;;;;;;11.36;92.06;97031.41;5116501;27;41528;-80
2023/03/14 00:35:12;;;;;;;0.53;0.53;;;;;;;11.33;92.25;97030.84;5131090;27;40652;-81
2023/03/14 00:37:40;;;;;;;0.60;0.60;;;;;;;11.38;92.68;97039.19;5133370;27;41907;-84
2023/03/14 00:40:09;;;;;;;0.67;0.60;;;;;;;11.43;91.97;97035.13;5133902;27;42568;-82
2023/03/14 00:42:37;;;;;;;0.57;0.47;;;;;;;11.42;91.85;97037.94;5116699;27;41938;-81
2023/03/14 00:45:07;;;;;;;0.50;0.50;;;;;;;11.47;91.30;97033.03;5116489;27;39058;-79
2023/03/14 00:47:36;;;;;;;0.50;0.50;;;;;;;11.50;91.04;97036.22;5116421;27;40921;-88
2023/03/14 00:50:05;;;;;;;1.60;0.80;;;;;;;11.46;91.10;97024.25;5133444;27;43823;-85
2023/03/14 00:52:33;;;;;;;1.30;0.60;;;;;;;11.51;90.50;97031.75;5116104;27;41361;-85
2023/03/14 00:55:01;;;;;;;0.67;0.67;;;;;;;11.49;90.25;97041.69;5133367;27;40687;-78
2023/03/14 00:57:29;;;;;;;1.27;0.70;;;;;;;11.53;89.86;97046.53;5133618;27;41754;-84
2023/03/14 00:59:57;;;;;;;2.17;0.50;;;;;;;11.51;90.05;97048.47;5132872;27;43900;-81
2023/03/14 01:02:25;;;;;;;0.60;0.60;;;;;;;11.53;89.62;97056.28;5133442;27;42481;-78
2023/03/14 01:04:54;;;;;;;0.70;0.70;;;;;;;11.53;89.71;97051.00;5133364;27;38857;-84
2023/03/14 01:07:24;;;;;;;0.90;0.60;;;;;;;11.46;89.04;97041.97;5131068;27;41755;-85
2023/03/14 01:09:53;;;;;;;0.60;0.50;;;;;;;11.52;89.07;97049.31;5134356;27;42986;-84
2023/03/14 01:12:21;;;;;;;1.20;0.60;;;;;;;11.54;88.51;97047.38;5116380;27;41150;-81
2023/03/14 01:14:48;;;;;;;2.30;0.80;;;;;;;11.54;88.43;97055.31;5115812;27;39109;-82
2023/03/14 01:17:16;;;;;;;1.10;0.53;;;;;;;11.50;88.24;97045.97;5116212;27;40734;-87
2023/03/14 01:19:44;;;;;;;1.57;0.50;;;;;;;11.52;88.38;97054.63;5132945;27;43167;-87
2023/03/14 01:22:13;;;;;;;1.50;0.80;;;;;;;11.51;88.09;97042.34;5133088;27;41393;-86
2023/03/14 01:24:41;;;;;;;0.77;0.60;;;;;;;11.53;87.75;97051.81;5133248;27;39715;-80
2023/03/14 01:27:09;;;;;;;1.13;0.53;;;;;;;11.44;87.59;97033.31;5133155;27;41391;-84
2023/03/14 01:29:37;;;;;;;0.60;0.57;;;;;;;11.52;87.60;97054.63;5114970;27;41617;-81
2023/03/14 01:32:06;;;;;;;0.93;0.70;;;;;;;11.16;87.22;96985.59;5116037;27;41092;-86
2023/03/14 01:34:33;;;;;;;0.50;0.50;;;;;;;11.51;87.67;97042.34;5116131;27;39166;-88
2023/03/14 01:37:01;;;;;;;1.27;0.70;;;;;;;11.50;86.99;97045.97;5132763;27;42471;-83
2023/03/14 01:39:32;;;;;;;0.80;0.80;;;;;;;11.48;87.21;97037.34;5133125;27;42925;-83
2023/03/14 01:42:01;;;;;;;0.67;0.60;;;;;;;11.46;87.07;97026.06;5115884;27;42608;-82
2023/03/14 01:44:28;;;;;;;0.60;0.60;;;;;;;11.51;86.95;97026.44;5133169;27;39877;-84
2023/03/14 01:46:56;;;;;;;0.97;0.67;;;;;;;11.51;86.36;97037.88;5115822;27;40495;-81
2023/03/14 01:49:29;;;;;;;1.17;0.60;;;;;;;11.50;86.61;97030.06;5132685;27;42691;-84
2023/03/14 01:52:14;;;;;;;1.47;0.60;;;;;;;11.53;85.64;97025.31;5133010;27;42108;-86
2023/03/14 01:54:47;;;;;;;0.50;0.50;;;;;;;11.56;85.70;97013.59;5132465;27;40406;-87
2023/03/14 01:57:18;;;;;;;1.43;0.70;;;;;;;11.47;85.26;96987.97;5115789;27;40481;-84
2023/03/14 01:59:50;;;;;;;0.80;0.60;;;;;;;11.57;85.20;96999.38;5115066;27;42944;-84
2023/03/14 02:02:18;;;;;;;0.60;0.60;;;;;;;11.56;85.01;96992.38;5115486;27;42097;-84
2023/03/14 02:04:46;;;;;;;2.13;0.77;;;;;;;11.54;84.92;97004.94;5132507;27;39623;-85
2023/03/14 02:07:21;;;;;;;0.87;0.60;;;;;;;11.47;85.07;96993.28;5132104;27;41854;-85
2023/03/14 02:10:02;;;;;;;1.20;0.80;;;;;;;11.50;85.25;96982.34;5115780;27;41705;-83
2023/03/14 02:12:33;;;;;;;1.47;0.80;;;;;;;11.51;84.84;96978.72;5129630;27;42310;-79
2023/03/14 02:15:13;;;;;;;0.47;0.43;;;;;;;11.42;84.89;96956.59;5129566;27;40138;-84
2023/03/14 02:18:01;;;;;;;0.63;0.50;;;;;;;11.49;84.83;96955.06;5132312;27;41581;-85
2023/03/14 02:20:52;;;;;;;0.60;0.60;;;;;;;11.46;85.24;96949.19;5115678;27;41889;-79
2023/03/14 02:23:30;;;;;;;2.40;0.73;;;;;;;11.45;85.33;96955.47;5115223;27;41109;-82
2023/03/14 02:26:04;;;;;;;0.87;0.67;;;;;;;11.32;85.14;96921.38;5115671;27;38943;-82
2023/03/14 02:28:33;;;;;;;1.30;0.80;;;;;;;11.40;85.24;96939.19;5115099;27;40812;-83
2023/03/14 02:31:03;;;;;;;2.20;1.00;;;;;;;11.43;85.12;96938.88;5129565;27;42533;-85
2023/03/14 02:33:35;;;;;;;1.13;0.97;;;;;;;11.45;85.13;96932.47;5130697;27;42309;-85
2023/03/14 02:36:08;;;;;;;2.93;0.53;;;;;;;11.42;85.38;96927.44;5115504;27;38854;-81
2023/03/14 02:38:42;;;;;;;1.07;0.90;;;;;;;11.45;84.94;96932.47;5114527;27;40545;-86
2023/03/14 02:41:11;;;;;;;0.50;0.50;;;;;;;11.45;85.29;96936.94;5115606;27;41906;-87
2023/03/14 02:43:45;;;;;;;1.07;0.97;;;;;;;11.41;85.74;96930.25;5134144;27;42422;-79
2023/03/14 02:46:19;;;;;;;1.30;0.87;;;;;;;11.48;85.57;96936.63;5119536;27;39083;-88
2023/03/14 02:48:51;;;;;;;0.50;0.50;;;;;;;11.54;85.19;96936.03;5134437;27;41750;-80
2023/03/14 02:51:20;;;;;;;1.53;0.60;;;;;;;11.50;85.30;96929.34;5119341;27;43053;-82
2023/03/14 02:53:49;;;;;;;1.00;0.50;;;;;;;11.57;85.78;96941.03;5142600;27;42871;-77
2023/03/14 02:56:17;;;;;;;1.00;0.97;;;;;;;11.55;86.15;96931.56;5130418;27;38892;-77
2023/03/14 02:58:47;;;;;;;1.20;0.57;;;;;;;11.47;87.13;96924.38;5122088;27;40573;-91
2023/03/14 03:01:26;;;;;;;0.63;0.60;;;;;;;11.38;87.84;96917.28;5130034;27;42091;-77
2023/03/14 03:03:54;;;;;;;1.03;0.40;;;;;;;11.30;88.66;96917.19;5133724;27;41257;-75
2023/03/14 03:06:22;;;;;;;1.93;0.53;;;;;;;11.26;89.10;96915.81;5133716;27;38366;-77
2023/03/14 03:08:50;;;;;;;1.20;0.60;;;;;;;11.18;88.81;96898.03;5133586;27;42729;-80
2023/03/14 03:11:18;;;;;;;1.70;0.77;;;;;;;11.23;89.52;96902.88;5151862;27;43153;-77
2023/03/14 03:13:47;;;;;;;2.07;0.80;;;;;;;11.19;89.61;96896.22;5146403;27;43008;-76
2023/03/14 03:16:16;;;;;;;2.67;1.47;;;;;;;11.08;89.48;96886.66;5143853;27;40139;-79
2023/03/14 03:18:43;;;;;;;2.40;0.83;;;;;;;11.09;88.96;96905.03;5144366;27;42457;-78
2023/03/14 03:21:11;;;;;;;0.97;0.60;;;;;;;11.11;90.08;96924.28;5143877;27;43437;-82
2023/03/14 03:23:39;;;;;;;2.20;0.60;;;;;;;11.09;89.77;96909.50;5142924;27;41301;-85
2023/03/14 03:26:07;;;;;;;0.57;0.57;;;;;;;11.08;89.50;96907.84;5119619;27;39771;-83
2023/03/14 03:28:35;;;;;;;0.77;0.53;;;;;;;11.06;90.08;96894.72;5119078;27;40735;-88
2023/03/14 03:31:09;;;;;;;1.00;0.67;;;;;;;10.96;90.00;96875.41;5136829;27;42656;-75
2023/03/14 03:33:38;;;;;;;1.57;0.77;;;;;;;11.11;89.89;96887.19;5119258;27;40929;-82
2023/03/14 03:36:08;;;;;;;3.90;0.70;;;;;;;11.05;90.08;96868.38;5118985;27;38611;-86
2023/03/14 03:38:38;;;;;;;1.40;0.60;;;;;;;11.09;90.22;96899.75;5117874;27;40972;-83
2023/03/14 03:41:08;;;;;;;1.43;0.80;;;;;;;11.16;90.09;96906.09;5136174;27;42020;-83
2023/03/14 03:43:37;;;;;;;1.93;0.80;;;;;;;11.22;89.45;96903.88;5119902;27;41384;-79
2023/03/14 03:46:08;;;;;;;1.40;0.60;;;;;;;11.28;89.68;96897.97;5136137;27;39920;-79
2023/03/14 03:48:37;;;;;;;1.87;0.53;;;;;;;11.27;89.83;96885.69;5118768;27;40861;-78
2023/03/14 03:51:07;;;;;;;1.97;0.60;;;;;;;11.18;90.87;96871.53;5135335;27;41709;-86
2023/03/14 03:53:36;;;;;;;3.30;0.73;;;;;;;11.29;90.43;96883.72;5117481;27;42356;-85
2023/03/14 03:56:09;;;;;;;2.03;0.60;;;;;;;11.27;91.14;96886.53;5132470;27;39912;-85
2023/03/14 03:58:39;;;;;;;0.77;0.50;;;;;;;11.27;90.79;96883.03;5134011;27;42311;-88
2023/03/14 04:01:10;;;;;;;1.47;0.80;;;;;;;11.23;90.30;96869.28;5117864;27;42765;-85
2023/03/14 04:03:39;;;;;;;3.03;0.93;;;;;;;11.24;90.54;96880.72;5132847;27;42332;-86
2023/03/14 04:06:09;;;;;;;3.10;1.00;;;;;;;11.29;90.36;96870.47;5134581;27;40250;-79
2023/03/14 04:08:40;;;;;;;1.50;1.10;;;;;;;11.28;90.02;96868.81;5133478;27;41697;-81
2023/03/14 04:11:10;;;;;;;3.30;1.27;;;;;;;11.31;89.78;96877.31;5132314;27;44094;-82
2023/03/14 04:14:05;;;;;;;2.43;1.10;;;;;;;11.29;89.76;96867.84;5117609;27;40927;-84
2023/03/14 04:16:34;;;;;;;1.13;0.80;;;;;;;11.21;89.24;96846.56;5117316;27;38913;-83
2023/03/14 04:19:09;;;;;;;1.37;1.27;;;;;;;11.24;89.33;96862.16;5116949;27;40703;-82
2023/03/14 04:21:40;;;;;;;2.00;0.80;;;;;;;11.24;89.21;96859.53;5134236;27;42849;-84
2023/03/14 04:24:10;;;;;;;1.83;0.77;;;;;;;11.23;89.03;96858.69;5117377;27;40882;-81
2023/03/14 04:26:38;;;;;;;0.80;0.60;;;;;;;11.09;88.90;96838.81;5135409;27;40125;-80
2023/03/14 04:29:06;;;;;;;2.17;0.80;;;;;;;11.14;88.84;96860.38;5116401;27;40590;-89
2023/03/14 04:31:35;;;;;;;1.63;0.80;;;;;;;11.12;88.51;96862.38;5134366;27;42953;-86
2023/03/14 04:34:04;;;;;;;2.03;0.87;;;;;;;11.09;88.31;96846.78;5117108;27;41365;-82
2023/03/14 04:36:37;;;;;;;3.10;1.17;;;;;;;10.81;88.62;96808.03;5117353;27;39762;-86
2023/03/14 04:39:09;;;;;;;1.77;0.90;;;;;;;11.04;88.43;96833.13;5117679;27;41714;-85
2023/03/14 04:41:40;;;;;;;2.37;0.87;;;;;;;11.15;87.89;96853.28;5116764;27;43409;-87
2023/03/14 04:44:09;;;;;;;1.27;0.80;;;;;;;11.20;87.41;96848.38;5116084;27;41424;-79
2023/03/14 04:46:38;;;;;;;4.33;1.00;;;;;;;11.21;87.07;96850.03;5116408;27;40003;-80
2023/03/14 04:49:08;;;;;;;2.47;0.97;;;;;;;11.20;87.13;96852.84;5116159;27;40773;-79
2023/03/14 04:51:36;;;;;;;1.10;0.70;;;;;;;11.21;87.00;96847.41;5116052;27;43937;-83
2023/03/14 04:54:04;;;;;;;1.83;1.30;;;;;;;11.12;86.22;96841.19;5133419;27;43131;-81
2023/03/14 04:56:32;;;;;;;1.50;0.63;;;;;;;11.16;86.35;96852.28;5133329;27;40093;-81
2023/03/14 04:59:03;;;;;;;1.53;0.60;;;;;;;11.11;86.09;96855.41;5115284;27;40857;-86
2023/03/14 05:01:32;;;;;;;1.83;0.70;;;;;;;11.13;86.45;96857.88;5133204;27;42646;-82
2023/03/14 05:04:29;;;;;;;2.33;1.50;;;;;;;11.03;86.19;96838.56;5115679;27;41271;-83
2023/03/14 05:07:17;;;;;;;2.13;0.80;;;;;;;11.12;85.77;96851.78;5133855;27;39908;-81
2023/03/14 05:10:12;;;;;;;2.20;0.97;;;;;;;11.08;86.14;96847.75;5130690;27;40582;-82
2023/03/14 05:13:15;;;;;;;1.27;0.80;;;;;;;11.04;85.71;96842.88;5088185;28;43671;-81
2023/03/14 05:16:06;;;;;;;1.23;0.90;;;;;;;11.04;86.08;96843.72;5128381;27;41112;-83
2023/03/14 05:18:46;;;;;;;1.20;0.80;;;;;;;11.05;85.97;96840.09;5131263;27;40118;-79
2023/03/14 05:21:35;;;;;;;0.73;0.60;;;;;;;11.14;85.49;96846.31;5131984;27;40675;-81
2023/03/14 05:24:16;;;;;;;3.13;0.70;;;;;;;11.03;85.49;96827.97;5115444;27;41923;-82
2023/03/14 05:26:57;;;;;;;1.73;0.80;;;;;;;11.16;85.25;96842.53;5115714;27;42539;-83
2023/03/14 05:29:34;;;;;;;1.00;0.70;;;;;;;11.19;85.02;96845.88;5132368;27;38965;-80
2023/03/14 05:32:21;;;;;;;2.17;0.93;;;;;;;11.20;85.27;96836.94;5130763;27;41696;-80
2023/03/14 05:35:24;;;;;;;1.90;1.00;;;;;;;11.25;84.86;96830.19;5090713;28;42581;-82
2023/03/14 05:38:03;;;;;;;1.53;0.70;;;;;;;11.27;84.46;96828.25;5109995;27;40810;-79
2023/03/14 05:41:02;;;;;;;2.93;0.87;;;;;;;11.21;84.02;96802.34;5129756;27;40110;-80
2023/03/14 05:43:36;;;;;;;0.60;0.60;;;;;;;11.25;84.01;96813.50;5137661;27;42744;-81
2023/03/14 05:46:23;;;;;;;3.83;0.97;;;;;;;11.27;83.96;96808.84;5132859;27;43134;-82
2023/03/14 05:49:23;;;;;;;2.80;0.90;;;;;;;11.31;83.59;96813.72;5121070;27;42286;-83
2023/03/14 05:51:59;;;;;;;1.83;0.63;;;;;;;11.25;83.67;96808.19;5115624;27;39170;-77
2023/03/14 05:54:28;;;;;;;3.00;0.87;;;;;;;11.25;83.70;96809.00;5133646;27;41818;-81
2023/03/14 05:57:08;;;;;;;0.80;0.80;;;;;;;11.21;83.38;96812.94;5129320;27;43745;-78
2023/03/14 05:59:59;;;;;;;1.00;0.77;;;;;;;11.19;83.36;96806.97;5114466;27;42256;-81
2023/03/14 06:02:52;;;;;;;1.67;0.90;;;;;;;11.19;83.37;96816.72;5129439;27;40021;-81
2023/03/14 06:05:25;;;;;;;3.60;1.00;;;;;;;11.04;82.94;96801.34;5114797;27;40934;-83
2023/03/14 06:07:58;;;;;;;1.80;0.63;;;;;;;11.15;82.93;96818.84;5114717;27;42028;-78
2023/03/14 06:10:29;;;;;;;2.40;1.17;;;;;;;11.12;82.71;96809.41;5132132;27;42785;-81
2023/03/14 06:12:58;;;;;;;1.37;1.10;;;;;;;11.04;82.62;96790.75;5131863;27;40007;-79
2023/03/14 06:15:26;;;;;;;1.77;0.90;;;;;;;11.24;82.13;96814.47;5132364;27;41844;-81
2023/03/14 06:17:56;;;;;;;1.73;0.80;;;;;;;11.23;81.86;96812.81;5135974;27;43506;-82
2023/03/14 06:20:25;;;;;;;0.93;0.63;;;;;;;11.24;81.73;96814.47;5136212;27;42940;-81
2023/03/14 06:22:53;;;;;;;3.43;0.77;;;;;;;11.25;81.86;96802.91;5135567;27;40919;-78
2023/03/14 06:25:22;;;;;;;1.63;0.70;;;;;;;11.35;81.57;96808.97;5118563;27;41749;-82
2023/03/14 06:27:51;;;;;;;2.70;1.00;;;;;;;11.32;81.21;96802.13;5136625;27;42680;-83
2023/03/14 06:30:19;;;;;;;1.00;0.73;;;;;;;11.33;81.13;96811.75;5118542;27;41136;-79
2023/03/14 06:32:47;;;;;;;1.83;1.00;;;;;;;11.40;81.06;96823.41;5118071;27;40026;-81
2023/03/14 06:35:17;;;;;;;1.20;0.90;;;;;;;11.42;80.89;96826.75;5118533;27;40874;-79
2023/03/14 06:37:46;;;;;;;1.63;0.80;;;;;;;11.44;79.65;96824.78;5118184;27;41877;-80
2023/03/14 06:40:17;;;;;;;1.10;0.80;;;;;;;11.50;78.99;96828.63;5118226;27;42226;-80
2023/03/14 06:43:00;;;;;;;2.30;0.90;;;;;;;11.56;78.45;96817.44;5118245;27;39034;-85
2023/03/14 06:45:30;;;;;;;1.07;0.97;;;;;;;11.90;78.49;96835.31;5132413;27;42420;-82
2023/03/14 06:47:59;;;;;;;3.17;1.97;;;;;;;11.98;77.96;96820.31;5135229;27;42814;-83
2023/03/14 06:50:36;;;;;;;1.60;0.70;;;;;;;12.01;77.19;96804.06;5118547;27;41450;-80
2023/03/14 06:53:05;;;;;;;1.10;0.80;;;;;;;12.24;76.88;96828.28;5117972;27;38872;-79
2023/03/14 06:55:34;;;;;;;2.93;0.87;;;;;;;12.28;75.92;96816.38;5135232;27;42960;-80
2023/03/14 06:58:04;;;;;;;2.60;0.97;;;;;;;12.32;76.04;96828.34;5136161;27;42869;-79
2023/03/14 07:00:35;;;;;;;2.63;0.90;;;;;;;12.33;75.45;96826.53;5133351;27;42305;-80
2023/03/14 07:03:04;;;;;;;3.13;1.20;;;;;;;12.40;75.38;96820.44;5135113;27;40760;-82
2023/03/14 07:05:36;;;;;;;2.23;0.70;;;;;;;12.53;75.19;96812.03;5117680;27;41798;-81
2023/03/14 07:08:04;;;;;;;1.93;1.13;;;;;;;12.53;74.22;96815.53;5134075;27;43624;-82
2023/03/14 07:10:31;;;;;;;1.30;0.50;;;;;;;12.51;73.93;96812.19;5135064;27;42277;-80
2023/03/14 07:12:59;;;;;;;1.23;0.80;;;;;;;12.56;73.85;96811.72;5135040;27;39853;-78
2023/03/14 07:15:32;;;;;;;2.40;0.90;;;;;;;12.56;73.59;96812.56;5117756;27;40160;-78
2023/03/14 07:18:05;;;;;;;1.67;0.93;;;;;;;12.61;73.67;96814.72;5117432;27;43062;-80
2023/03/14 07:20:33;;;;;;;2.33;1.00;;;;;;;12.62;73.82;96812.91;5134846;27;42296;-80
2023/03/14 07:23:02;;;;;;;4.63;0.90;;;;;;;12.62;73.22;96813.72;5117336;27;40172;-80
2023/03/14 07:25:38;;;;;;;3.13;1.00;;;;;;;12.61;73.08;96825.34;5132054;27;41577;-78
2023/03/14 07:28:06;;;;;;;1.10;0.70;;;;;;;12.58;72.87;96821.22;5116444;27;42520;-79
2023/03/14 07:30:36;;;;;;;2.37;0.97;;;;;;;12.60;72.90;96818.41;5134949;27;42305;-82
2023/03/14 07:33:11;;;;;;;1.77;1.20;;;;;;;12.63;72.99;96817.22;5117741;27;39824;-82
2023/03/14 07:35:39;;;;;;;1.70;0.97;;;;;;;12.64;72.29;96829.50;5134519;27;42694;-78
2023/03/14 07:38:07;;;;;;;2.23;0.70;;;;;;;12.69;72.06;96821.91;5134107;27;43295;-78
2023/03/14 07:40:40;;;;;;;2.77;0.90;;;;;;;12.67;71.58;96826.53;5117633;27;40933;-79
2023/03/14 07:43:08;;;;;;;1.57;0.90;;;;;;;12.77;71.73;96833.41;5134732;27;40688;-80
2023/03/14 07:46:03;;;;;;;2.23;0.83;;;;;;;12.79;70.57;96812.81;5134021;27;41711;-80
2023/03/14 07:48:31;;;;;;;1.97;0.77;;;;;;;12.81;70.88;96813.50;5133990;27;41591;-78
2023/03/14 07:50:59;;;;;;;1.60;0.73;;;;;;;12.47;70.56;96765.72;5117344;27;41130;-79
2023/03/14 07:53:27;;;;;;;0.87;0.67;;;;;;;12.76;70.34;96807.84;5135334;27;39872;-82
2023/03/14 07:55:56;;;;;;;0.87;0.80;;;;;;;12.78;69.93;96826.25;5134408;27;40587;-81
2023/03/14 07:58:24;;;;;;;1.67;0.83;;;;;;;12.72;69.56;96822.44;5134081;27;42689;-81
2023/03/14 08:00:52;;;;;;;1.63;0.70;;;;;;;12.79;70.45;96822.63;5133952;27;42412;-78
2023/03/14 08:03:21;;;;;;;2.07;0.83;;;;;;;12.82;69.87;96814.34;5117072;27;38702;-79
2023/03/14 08:05:50;;;;;;;3.23;1.00;;;;;;;12.95;69.66;96825.34;5117254;27;40748;-80
2023/03/14 08:08:19;;;;;;;1.33;0.70;;;;;;;13.19;69.37;96836.09;5133499;27;44204;-78
2023/03/14 08:10:47;;;;;;;1.50;0.70;;;;;;;13.37;68.53;96837.78;5135001;27;42296;-79
2023/03/14 08:13:15;;;;;;;2.93;0.70;;;;;;;13.51;68.22;96839.81;5116821;27;38916;-81
2023/03/14 08:15:43;;;;;;;3.67;1.00;;;;;;;13.51;67.70;96842.47;5116999;27;40952;-79
2023/03/14 08:18:11;;;;;;;2.23;0.87;;;;;;;13.55;67.36;96846.50;5116810;27;42004;-79
2023/03/14 08:20:40;;;;;;;1.30;0.70;;;;;;;13.85;67.10;96842.34;5134175;27;42299;-78
2023/03/14 08:23:08;;;;;;;1.17;0.60;;;;;;;14.20;65.44;96865.16;5116614;27;38967;-80
2023/03/14 08:25:35;;;;;;;3.07;0.90;;;;;;;14.40;64.26;96853.19;5116810;27;41025;-78
2023/03/14 08:28:03;;;;;;;2.70;0.87;;;;;;;14.40;63.35;96837.22;5142831;27;43876;-79
2023/03/14 08:30:31;;;;;;;2.03;1.07;;;;;;;14.44;63.39;96865.19;5142428;27;41910;-80
2023/03/14 08:32:59;;;;;;;1.83;0.80;;;;;;;14.41;64.15;96843.38;5135111;27;39903;-81
2023/03/14 08:35:31;;;;;;;2.57;0.70;;;;;;;14.32;64.43;96861.16;5132230;27;42806;-81
2023/03/14 08:38:04;;;;;;;1.07;0.70;;;;;;;14.34;64.54;96854.66;5131911;27;43534;-78
2023/03/14 08:40:32;;;;;;;1.60;0.73;;;;;;;14.40;64.05;96847.88;5115487;27;43257;-79
2023/03/14 08:43:00;;;;;;;1.20;0.80;;;;;;;14.34;63.66;96844.00;5133447;27;39217;-77
2023/03/14 08:45:28;;;;;;;1.50;0.53;;;;;;;14.51;62.99;96860.84;5134813;27;41694;-80
2023/03/14 08:47:56;;;;;;;1.40;0.70;;;;;;;14.87;61.62;96866.56;5133295;27;41890;-79
2023/03/14 08:50:24;;;;;;;2.67;0.90;;;;;;;15.30;61.19;96867.94;5115973;27;42470;-83
2023/03/14 08:52:52;;;;;;;3.47;0.63;;;;;;;16.01;59.44;96872.19;5116089;27;38672;-80
2023/03/14 08:55:21;;;;;;;2.00;1.00;;;;;;;17.79;54.40;96874.00;5134561;27;41543;-79
2023/03/14 08:57:49;;;;;;;0.93;0.50;;;;;;;19.02;50.52;96910.19;5134031;27;42609;-79
2023/03/14 09:00:18;;;;;;;1.47;0.50;;;;;;;19.47;48.93;96913.31;5115579;27;42380;-80
2023/03/14 09:02:46;;;;;;;2.10;0.40;;;;;;;19.37;48.07;96913.69;5133106;27;39957;-81
2023/03/14 09:05:14;;;;;;;1.50;0.37;;;;;;;19.13;48.50;96899.94;5133333;27;42563;-81
2023/03/14 09:07:43;;;;;;;1.03;0.40;;;;;;;18.57;48.93;96905.25;5132704;27;41737;-80
2023/03/14 09:10:12;;;;;;;0.97;0.40;;;;;;;18.09;49.71;96901.50;5133035;27;41345;-79
2023/03/14 09:12:41;;;;;;;2.07;0.40;;;;;;;17.91;50.55;96900.09;5115600;27;38986;-80
2023/03/14 09:15:10;;;;;;;0.40;0.37;;;;;;;17.75;51.21;96878.06;5116035;27;41195;-81
2023/03/14 09:17:38;;;;;;;1.70;0.50;;;;;;;17.58;51.06;96894.31;5115759;27;42015;-80
2023/03/14 09:20:08;;;;;;;2.27;0.40;;;;;;;17.49;52.05;96899.97;5134257;27;42272;-78
2023/03/14 09:22:36;;;;;;;1.23;0.40;;;;;;;17.34;51.93;96901.81;5116210;27;38608;-78
2023/03/14 09:25:04;;;;;;;0.93;0.30;;;;;;;17.03;52.88;96889.50;5115915;27;40625;-79
2023/03/14 09:27:32;;;;;;;4.23;0.40;;;;;;;16.94;53.44;96905.81;5133938;27;42694;-77
2023/03/14 09:30:02;;;;;;;0.43;0.33;;;;;;;16.69;54.12;96891.84;5115304;27;41194;-81
2023/03/14 09:32:31;;;;;;;0.60;0.40;;;;;;;16.48;54.31;96900.53;5133880;27;41003;-81
2023/03/14 09:34:58;;;;;;;0.30;0.30;;;;;;;16.24;54.76;96890.03;5132550;27;42833;-81
2023/03/14 09:37:26;;;;;;;0.67;0.40;;;;;;;16.23;55.85;96891.03;5132865;27;41428;-84
2023/03/14 09:39:54;;;;;;;0.70;0.47;;;;;;;16.24;55.56;96903.38;5115499;27;41294;-80
2023/03/14 09:42:26;;;;;;;0.80;0.40;;;;;;;16.19;55.49;96893.25;5133789;27;39650;-83
2023/03/14 09:44:57;;;;;;;0.77;0.50;;;;;;;16.28;54.68;96894.84;5115303;27;40729;-80
2023/03/14 09:47:27;;;;;;;0.43;0.33;;;;;;;16.32;54.81;96898.00;5130091;27;43800;-80
2023/03/14 09:49:55;;;;;;;1.13;0.30;;;;;;;16.53;54.11;96893.63;5132362;27;41196;-80
2023/03/14 09:52:27;;;;;;;0.50;0.40;;;;;;;17.03;54.41;96877.97;5114563;27;39955;-80
2023/03/14 09:55:00;;;;;;;0.40;0.33;;;;;;;17.41;52.56;96918.81;5115231;27;40704;-79
2023/03/14 09:57:28;;;;;;;0.80;0.50;;;;;;;17.41;52.91;96916.97;5132122;27;41788;-79
2023/03/14 10:00:01;;;;;;;1.70;0.43;;;;;;;17.55;52.78;96900.06;5133077;27;43158;-81
2023/03/14 10:02:36;;;;;;;2.00;0.50;;;;;;;17.80;52.46;96907.81;5116378;27;20210;-78
2023/03/14 10:05:09;;;;;;;1.80;0.40;;;;;;;17.96;52.01;96915.59;5132191;27;41993;-79
2023/03/14 10:07:38;;;;;;;0.80;0.47;;;;;;;18.28;51.39;96907.06;5128881;27;44020;-82
2023/03/14 10:10:12;;;;;;;1.40;0.57;;;;;;;18.52;49.89;96915.75;5114741;27;41634;-81
2023/03/14 10:12:41;;;;;;;1.40;0.50;;;;;;;18.68;49.54;96928.88;5115080;27;39263;-78
2023/03/14 10:15:11;;;;;;;0.50;0.50;;;;;;;19.19;49.36;96915.22;5132210;27;42687;-80
2023/03/14 10:17:43;;;;;;;0.60;0.60;;;;;;;19.97;47.71;96924.72;5131941;27;43186;-82
2023/03/14 10:20:35;;;;;;;2.40;0.33;;;;;;;20.69;46.59;96929.41;5115005;27;42318;-81
2023/03/14 10:23:06;;;;;;;1.70;0.50;;;;;;;21.38;44.32;96953.22;5114844;27;38759;-81
2023/03/14 10:25:36;;;;;;;1.30;0.43;;;;;;;23.35;40.62;96945.06;5114446;27;40489;-80
2023/03/14 10:28:06;;;;;;;1.37;0.60;;;;;;;24.89;38.38;96960.81;5132313;27;42650;-83
2023/03/14 10:30:43;;;;;;;0.40;0.40;;;;;;;25.73;36.88;96973.13;5131953;27;42229;-78
2023/03/14 10:33:22;;;;;;;1.63;0.43;;;;;;;28.63;32.62;96982.38;5132027;27;38963;-83
2023/03/14 10:35:55;;;;;;;0.73;0.60;;;;;;;29.67;31.17;96987.41;5131327;27;42480;-80
2023/03/14 10:38:26;;;;;;;1.10;0.50;;;;;;;30.02;29.70;97003.22;5129740;27;42798;-82
2023/03/14 10:40:56;;;;;;;0.60;0.50;;;;;;;29.72;30.55;96983.88;5130292;27;43051;-82
2023/03/14 10:43:27;;;;;;;0.40;0.40;;;;;;;30.87;28.42;96996.44;5132893;27;40218;-80
2023/03/14 10:45:58;;;;;;;0.30;0.30;;;;;;;32.16;26.86;96996.94;5131368;27;41895;-82
2023/03/14 10:48:34;;;;;;;0.50;0.50;;;;;;;32.70;25.72;96982.47;5129989;27;42698;-80
2023/03/14 10:51:08;;;;;;;2.05;0.47;;;;;;;34.50;24.44;96999.56;5131158;27;41183;-79
2023/03/14 10:53:41;;;;;;;0.38;0.38;;;;;;;33.72;24.16;96997.13;5129801;27;39983;-78
2023/03/14 10:56:13;;;;;;;0.20;0.20;;;;;;;34.88;23.48;96999.63;5131541;27;40892;-78
2023/03/14 10:58:44;;;;;;;0.50;0.30;;;;;;;35.49;23.04;96977.50;5128418;27;43779;-80
2023/03/14 11:01:26;;;;;;;0.80;0.40;;;;;;;35.35;22.96;96995.13;5130965;27;41144;-78
2023/03/14 11:04:00;;;;;;;0.63;0.40;;;;;;;34.65;23.54;96981.22;5133718;27;38759;-80
2023/03/14 11:06:37;;;;;;;0.60;0.40;;;;;;;32.92;25.08;96933.53;5117158;27;42124;-81
2023/03/14 11:09:13;;;;;;;0.40;0.40;;;;;;;31.49;26.38;96956.28;5117968;27;42068;-77
2023/03/14 11:11:47;;;;;;;0.97;0.50;;;;;;;30.01;27.95;96946.97;5143129;27;43148;-76
2023/03/14 11:14:23;;;;;;;0.40;0.40;;;;;;;28.83;29.11;96941.72;5139329;27;40610;-78
2023/03/14 11:16:57;;;;;;;0.70;0.53;;;;;;;27.85;30.45;96942.75;5138306;27;40920;-81
2023/03/14 11:19:58;;;;;;;0.50;0.50;;;;;;;26.36;31.95;96924.28;5118827;27;41539;-80
2023/03/14 11:22:33;;;;;;;0.43;0.43;;;;;;;24.61;34.93;96894.59;5132655;27;42313;-80
2023/03/14 11:25:21;;;;;;;0.93;0.40;;;;;;;23.40;36.78;96874.97;5118054;27;38585;-83
2023/03/14 11:28:02;;;;;;;0.57;0.33;;;;;;;22.67;38.29;96891.00;5131467;27;43200;-81
2023/03/14 11:30:37;;;;;;;0.80;0.47;;;;;;;22.18;40.16;96862.94;5126594;27;42802;-78
2023/03/14 11:33:12;;;;;;;0.37;0.37;;;;;;;21.86;41.09;96843.22;5146255;27;42648;-79
2023/03/14 11:35:48;;;;;;;0.43;0.43;;;;;;;21.85;41.19;96863.94;5149617;27;40274;-78
2023/03/14 11:38:30;;;;;;;0.67;0.40;;;;;;;22.22;40.98;96866.88;5133564;27;42856;-81
2023/03/14 11:40:59;;;;;;;0.40;0.30;;;;;;;22.44;40.88;96865.47;5149372;27;43393;-77
2023/03/14 11:43:30;;;;;;;0.50;0.30;;;;;;;22.41;40.84;96867.75;5131129;27;40968;-78
2023/03/14 11:46:05;;;;;;;0.97;0.30;;;;;;;21.81;41.69;96870.78;5133877;27;40083;-77
2023/03/14 11:48:39;;;;;;;0.73;0.30;;;;;;;21.61;42.00;96859.28;5132065;27;42821;-81
2023/03/14 11:51:15;;;;;;;0.60;0.50;;;;;;;21.35;43.41;96864.78;5134735;27;42710;-81
2023/03/14 11:53:55;;;;;;;1.77;0.50;;;;;;;20.75;44.91;96831.78;5133300;27;43220;-77
2023/03/14 11:56:28;;;;;;;0.40;0.40;;;;;;;20.25;46.70;96844.78;5117813;27;40812;-81